Time;durP1;ratioP1;P1;durP2;ratioP2;P2;SDS_P1;SDS_P2;PMS_P1;PMS_P2;Temp;Humidity;BMP_temperature;BMP_pressure;BME280_temperature;BME280_humidity;BME280_pressure;Samples;Min_cycle;Max_cycle;Signal;HPM_P1;HPM_P2
2023/05/16 00:00:53;;;;;;;11.13;10.23;;;15.20;1.00;;;;;;5005231;28;20445;-76
2023/05/16 00:03:21;;;;;;;10.30;9.50;;;15.30;1.00;;;;;;5012047;28;20447;-76
2023/05/16 00:05:49;;;;;;;10.67;9.80;;;15.30;1.00;;;;;;5007863;28;20476;-76
2023/05/16 00:08:17;;;;;;;10.93;9.83;;;15.30;1.00;;;;;;4997741;28;20990;-75
2023/05/16 00:10:44;;;;;;;10.67;9.73;;;15.30;1.00;;;;;;4988880;28;21053;-76
2023/05/16 00:13:13;;;;;;;11.10;10.20;;;15.40;1.00;;;;;;4987503;28;20467;-76
2023/05/16 00:15:43;;;;;;;10.00;9.10;;;15.30;1.00;;;;;;4986854;28;21204;-76
2023/05/16 00:18:13;;;;;;;10.90;9.90;;;15.30;1.00;;;;;;4989066;28;20498;-76
2023/05/16 00:20:40;;;;;;;11.30;10.40;;;15.30;1.00;;;;;;4986169;28;20493;-76
2023/05/16 00:23:07;;;;;;;10.40;9.50;;;15.30;1.00;;;;;;4986535;28;20494;-76
2023/05/16 00:25:35;;;;;;;11.80;10.80;;;15.40;1.00;;;;;;4984908;28;20566;-76
2023/05/16 00:28:02;;;;;;;10.13;9.33;;;15.30;1.00;;;;;;4985009;28;20470;-76
2023/05/16 00:30:31;;;;;;;11.60;10.70;;;15.30;1.00;;;;;;4984548;28;20462;-76
2023/05/16 00:33:03;;;;;;;11.13;10.03;;;15.20;1.00;;;;;;4985036;28;21232;-75
2023/05/16 00:35:30;;;;;;;11.27;10.43;;;15.20;1.00;;;;;;4986105;28;21133;-76
2023/05/16 00:37:57;;;;;;;11.17;10.27;;;15.10;1.00;;;;;;4985489;28;20896;-76
2023/05/16 00:40:24;;;;;;;13.80;12.70;;;15.10;1.00;;;;;;4985004;28;21096;-75
2023/05/16 00:42:51;;;;;;;14.33;12.93;;;15.10;1.00;;;;;;4985052;28;21554;-75
2023/05/16 00:45:24;;;;;;;12.83;11.83;;;15.00;1.00;;;;;;4983653;28;20996;-75
2023/05/16 00:47:52;;;;;;;12.83;11.80;;;15.00;1.00;;;;;;4987335;28;21090;-75
2023/05/16 00:50:20;;;;;;;12.83;11.90;;;14.90;1.00;;;;;;4984927;28;20460;-75
2023/05/16 00:52:47;;;;;;;12.93;11.80;;;14.90;1.00;;;;;;4993735;28;20940;-75
2023/05/16 00:55:14;;;;;;;14.07;12.87;;;14.80;1.00;;;;;;4986926;28;20508;-75
2023/05/16 00:57:41;;;;;;;12.63;11.63;;;14.80;1.00;;;;;;4985066;28;20502;-75
2023/05/16 01:00:10;;;;;;;13.50;12.50;;;14.70;1.00;;;;;;4984561;28;20466;-75
2023/05/16 01:02:38;;;;;;;15.40;13.90;;;14.70;1.00;;;;;;4984612;28;20966;-77
2023/05/16 01:05:07;;;;;;;13.70;12.60;;;14.70;1.00;;;;;;4982657;28;20867;-75
2023/05/16 01:07:35;;;;;;;14.93;13.73;;;14.60;1.00;;;;;;4982587;28;20515;-75
2023/05/16 01:10:04;;;;;;;14.30;13.13;;;14.60;1.00;;;;;;4982544;28;21171;-75
2023/05/16 01:12:41;;;;;;;15.40;14.00;;;14.60;1.00;;;;;;4976854;28;20513;-75
2023/05/16 01:15:10;;;;;;;15.23;13.90;;;14.50;1.00;;;;;;4984798;28;20536;-76
2023/05/16 01:17:48;;;;;;;16.47;15.07;;;14.30;1.00;;;;;;4982816;28;20496;-75
2023/05/16 01:20:40;;;;;;;16.33;14.97;;;14.30;1.00;;;;;;4986752;28;20516;-75
2023/05/16 01:23:26;;;;;;;16.83;15.23;;;14.20;1.00;;;;;;4984567;28;20477;-75
2023/05/16 01:26:10;;;;;;;17.27;15.77;;;14.10;1.00;;;;;;4983341;28;20476;-75
2023/05/16 01:28:40;;;;;;;19.03;17.17;;;14.10;1.00;;;;;;4978701;28;20604;-76
2023/05/16 01:31:07;;;;;;;18.67;17.00;;;14.00;1.00;;;;;;4980552;28;20478;-75
2023/05/16 01:33:34;;;;;;;18.97;17.33;;;14.00;1.00;;;;;;4984381;28;20520;-76
2023/05/16 01:36:08;;;;;;;18.93;17.23;;;14.00;1.00;;;;;;4986476;28;20483;-76
2023/05/16 01:38:40;;;;;;;19.57;17.70;;;13.90;1.00;;;;;;4987354;28;20456;-76
2023/05/16 01:41:18;;;;;;;20.10;18.53;;;13.90;1.00;;;;;;4980652;28;20556;-76
2023/05/16 01:43:49;;;;;;;20.20;18.37;;;13.80;1.00;;;;;;4971653;28;20497;-76
2023/05/16 01:46:28;;;;;;;20.47;18.67;;;13.80;1.00;;;;;;4984758;28;21058;-76
2023/05/16 01:49:06;;;;;;;21.47;19.67;;;13.70;1.00;;;;;;4985343;28;21208;-75
2023/05/16 01:51:33;;;;;;;20.93;18.93;;;13.70;1.00;;;;;;4980372;28;20496;-75
2023/05/16 01:54:12;;;;;;;22.53;20.37;;;13.70;1.00;;;;;;4986631;28;20530;-75
2023/05/16 01:56:47;;;;;;;21.40;19.60;;;13.70;1.00;;;;;;4985932;28;20575;-76
2023/05/16 01:59:15;;;;;;;18.97;17.10;;;13.70;1.00;;;;;;4989324;28;20455;-75
2023/05/16 02:01:42;;;;;;;20.90;18.87;;;13.70;1.00;;;;;;4984880;28;20468;-76
2023/05/16 02:04:09;;;;;;;19.27;17.50;;;13.80;1.00;;;;;;4985302;28;20984;-76
2023/05/16 02:06:36;;;;;;;19.30;17.57;;;13.70;1.00;;;;;;4988811;28;21209;-76
2023/05/16 02:09:03;;;;;;;19.50;17.53;;;13.70;1.00;;;;;;4994998;28;20496;-76
2023/05/16 02:11:30;;;;;;;19.17;17.43;;;13.60;1.00;;;;;;5005083;28;20483;-75
2023/05/16 02:13:58;;;;;;;18.07;16.53;;;13.50;1.00;;;;;;5003275;28;20893;-76
2023/05/16 02:16:25;;;;;;;19.00;17.40;;;13.50;1.00;;;;;;5008377;28;20590;-76
2023/05/16 02:18:55;;;;;;;18.50;16.73;;;13.40;1.00;;;;;;4999305;28;21193;-76
2023/05/16 02:21:25;;;;;;;20.20;18.00;;;13.40;1.00;;;;;;5007298;28;21418;-76
2023/05/16 02:23:52;;;;;;;19.50;17.67;;;13.50;1.00;;;;;;5003863;28;20547;-76
2023/05/16 02:26:19;;;;;;;19.07;17.10;;;13.40;1.00;;;;;;5004065;28;20540;-77
2023/05/16 02:28:48;;;;;;;17.90;16.40;;;13.40;1.00;;;;;;5003247;28;20456;-76
2023/05/16 02:31:26;;;;;;;18.40;16.60;;;13.30;1.00;;;;;;4992938;28;20576;-76
2023/05/16 02:33:53;;;;;;;18.80;17.10;;;13.30;1.00;;;;;;5000541;28;20459;-75
2023/05/16 02:36:20;;;;;;;17.80;16.07;;;13.30;1.00;;;;;;5007719;28;20465;-76
2023/05/16 02:38:47;;;;;;;17.53;16.07;;;13.20;1.00;;;;;;5007076;28;21214;-76
2023/05/16 02:41:14;;;;;;;19.23;17.23;;;13.20;1.00;;;;;;5001062;28;20456;-76
2023/05/16 02:43:42;;;;;;;22.37;20.27;;;13.10;1.00;;;;;;5003510;28;20424;-76
2023/05/16 02:46:25;;;;;;;18.87;17.17;;;13.10;1.00;;;;;;5006734;28;20461;-75
2023/05/16 02:48:54;;;;;;;17.83;15.93;;;13.10;1.00;;;;;;5005697;28;20467;-76
2023/05/16 02:51:23;;;;;;;19.10;17.33;;;13.10;1.00;;;;;;5002883;28;20465;-76
2023/05/16 02:53:51;;;;;;;19.37;17.57;;;13.10;1.00;;;;;;5000854;28;21114;-76
2023/05/16 02:56:20;;;;;;;18.23;16.43;;;13.00;1.00;;;;;;4999586;28;20484;-77
2023/05/16 02:58:48;;;;;;;18.60;17.00;;;12.90;1.00;;;;;;4983459;28;20489;-76
2023/05/16 03:01:16;;;;;;;18.83;15.80;;;12.90;1.00;;;;;;5001484;28;20463;-75
2023/05/16 03:03:44;;;;;;;18.90;16.97;;;12.90;1.00;;;;;;5004893;28;20472;-76
2023/05/16 03:06:12;;;;;;;17.50;15.80;;;12.90;1.00;;;;;;5004096;28;20453;-76
2023/05/16 03:08:39;;;;;;;16.77;15.33;;;12.80;1.00;;;;;;4988290;28;20547;-76
2023/05/16 03:11:06;;;;;;;17.60;15.60;;;12.80;1.00;;;;;;4980313;28;20468;-76
2023/05/16 03:13:33;;;;;;;18.77;17.03;;;12.80;1.00;;;;;;4982838;28;20540;-76
2023/05/16 03:16:01;;;;;;;18.87;17.17;;;12.80;1.00;;;;;;4980694;28;20651;-77
2023/05/16 03:18:27;;;;;;;18.33;16.23;;;12.90;1.00;;;;;;4983679;28;20454;-76
2023/05/16 03:20:56;;;;;;;18.87;17.13;;;12.90;1.00;;;;;;4982872;28;20551;-77
2023/05/16 03:23:23;;;;;;;18.20;16.40;;;12.90;1.00;;;;;;4982276;28;21026;-76
2023/05/16 03:25:50;;;;;;;17.83;16.20;;;12.90;1.00;;;;;;4984496;28;20477;-76
2023/05/16 03:28:18;;;;;;;18.97;16.80;;;13.00;1.00;;;;;;4983413;28;20601;-76
2023/05/16 03:30:45;;;;;;;18.60;16.70;;;12.90;1.00;;;;;;4986615;28;20457;-76
2023/05/16 03:33:12;;;;;;;18.60;16.80;;;12.90;1.00;;;;;;4985252;28;20460;-76
2023/05/16 03:35:43;;;;;;;19.87;17.77;;;12.80;1.00;;;;;;4980542;28;20476;-76
2023/05/16 03:38:12;;;;;;;19.23;17.33;;;12.80;1.00;;;;;;4982393;28;20544;-76
2023/05/16 03:40:39;;;;;;;19.40;17.60;;;12.80;1.00;;;;;;4980940;28;20552;-76
2023/05/16 03:43:07;;;;;;;19.43;17.70;;;12.70;1.00;;;;;;4985328;28;20460;-77
2023/05/16 03:45:39;;;;;;;18.90;17.20;;;12.80;1.00;;;;;;4980105;28;20463;-77
2023/05/16 03:48:09;;;;;;;19.50;17.50;;;12.70;1.00;;;;;;4971836;28;20852;-76
2023/05/16 03:50:37;;;;;;;20.60;18.60;;;12.70;1.00;;;;;;4982384;28;20463;-75
2023/05/16 03:53:04;;;;;;;20.33;18.30;;;12.70;1.00;;;;;;4977100;28;20467;-77
2023/05/16 03:55:33;;;;;;;21.90;19.70;;;12.60;1.00;;;;;;4980241;28;20480;-76
2023/05/16 03:58:01;;;;;;;21.47;19.50;;;12.60;1.00;;;;;;4965477;28;20618;-77
2023/05/16 04:00:29;;;;;;;21.33;19.23;;;12.50;1.00;;;;;;4979674;28;20460;-76
2023/05/16 04:02:58;;;;;;;20.30;18.40;;;12.50;1.00;;;;;;4965642;28;20518;-76
2023/05/16 04:05:28;;;;;;;19.17;17.20;;;12.50;1.00;;;;;;4975224;28;20468;-76
2023/05/16 04:07:57;;;;;;;20.83;18.73;;;12.50;1.00;;;;;;4989079;28;20462;-76
2023/05/16 04:10:25;;;;;;;21.80;19.53;;;12.50;1.00;;;;;;4998073;28;20455;-75
2023/05/16 04:12:54;;;;;;;20.10;17.97;;;12.50;1.00;;;;;;4998568;28;20571;-76
2023/05/16 04:15:21;;;;;;;21.53;19.40;;;12.50;1.00;;;;;;5004040;28;20477;-75
2023/05/16 04:17:48;;;;;;;21.37;19.27;;;12.60;1.00;;;;;;5003253;28;20455;-75
2023/05/16 04:20:16;;;;;;;22.00;19.80;;;12.60;1.00;;;;;;5009916;28;21492;-82
2023/05/16 04:22:43;;;;;;;21.87;19.87;;;12.70;1.00;;;;;;5008851;28;20504;-82
2023/05/16 04:25:13;;;;;;;21.43;19.40;;;12.70;1.00;;;;;;5008085;28;20469;-83
2023/05/16 04:27:41;;;;;;;20.33;18.43;;;12.70;1.00;;;;;;5010252;28;20991;-83
2023/05/16 04:30:14;;;;;;;22.17;19.77;;;12.60;1.00;;;;;;5006671;28;20463;-82
2023/05/16 04:32:43;;;;;;;21.77;19.77;;;12.60;1.00;;;;;;5006126;28;21145;-84
2023/05/16 04:35:11;;;;;;;21.23;19.10;;;12.50;1.00;;;;;;5004263;28;20486;-82
2023/05/16 04:37:38;;;;;;;21.63;19.63;;;12.50;1.00;;;;;;5008436;28;20438;-83
2023/05/16 04:40:07;;;;;;;21.57;19.47;;;12.50;1.00;;;;;;5005219;28;20466;-82
2023/05/16 04:42:36;;;;;;;21.70;19.70;;;12.50;1.00;;;;;;5006192;28;20467;-80
2023/05/16 04:45:10;;;;;;;20.70;18.80;;;12.40;1.00;;;;;;4993671;28;20446;-82
2023/05/16 04:47:38;;;;;;;21.93;19.50;;;12.40;1.00;;;;;;5009867;28;20459;-83
2023/05/16 04:50:07;;;;;;;22.07;19.83;;;12.40;1.00;;;;;;5006420;28;20477;-83
2023/05/16 04:52:35;;;;;;;21.97;19.70;;;12.40;1.00;;;;;;5007408;28;20467;-84
2023/05/16 04:55:03;;;;;;;22.03;19.77;;;12.40;1.00;;;;;;5009543;28;20474;-83
2023/05/16 04:57:30;;;;;;;22.40;20.30;;;12.40;1.00;;;;;;5005396;28;20478;-83
2023/05/16 04:59:57;;;;;;;24.53;20.37;;;12.30;1.00;;;;;;5010160;28;20584;-83
2023/05/16 05:02:24;;;;;;;23.90;21.53;;;12.30;1.00;;;;;;5010575;28;20546;-83
2023/05/16 05:04:54;;;;;;;22.87;20.67;;;12.30;1.00;;;;;;5000958;28;20475;-83
2023/05/16 05:07:26;;;;;;;22.00;20.00;;;12.30;1.00;;;;;;5000129;28;20474;-84
2023/05/16 05:09:54;;;;;;;23.13;20.83;;;12.30;1.00;;;;;;4997806;28;20442;-83
2023/05/16 05:12:30;;;;;;;24.80;22.37;;;12.20;1.00;;;;;;4987501;28;20603;-82
2023/05/16 05:14:57;;;;;;;21.57;19.57;;;12.20;1.00;;;;;;5008550;28;20556;-85
2023/05/16 05:17:26;;;;;;;22.10;19.77;;;12.20;1.00;;;;;;5000947;28;20457;-84
2023/05/16 05:19:54;;;;;;;22.43;20.17;;;12.30;1.00;;;;;;5004599;28;20425;-85
2023/05/16 05:22:21;;;;;;;21.83;19.73;;;12.30;1.00;;;;;;5003900;28;20910;-85
2023/05/16 05:24:50;;;;;;;23.03;20.77;;;12.30;1.00;;;;;;5003036;28;20475;-85
2023/05/16 05:27:17;;;;;;;24.30;21.90;;;12.30;1.00;;;;;;5014617;28;20439;-84
2023/05/16 05:29:45;;;;;;;25.47;21.90;;;12.30;1.00;;;;;;5015181;28;20466;-84
2023/05/16 05:32:12;;;;;;;22.87;20.47;;;12.20;1.00;;;;;;5001070;28;20640;-86
2023/05/16 05:34:39;;;;;;;22.43;20.03;;;12.30;1.00;;;;;;5002024;28;20594;-85
2023/05/16 05:37:11;;;;;;;22.63;20.53;;;12.20;1.00;;;;;;5009296;28;20467;-87
2023/05/16 05:39:38;;;;;;;22.63;19.77;;;12.20;1.00;;;;;;5013618;28;20443;-88
2023/05/16 05:42:07;;;;;;;21.90;19.67;;;12.20;1.00;;;;;;5009338;28;20497;-86
2023/05/16 05:44:38;;;;;;;32.30;29.30;;;12.30;1.00;;;;;;5011546;28;20471;-86
2023/05/16 05:47:06;;;;;;;21.50;19.30;;;12.40;1.00;;;;;;5005286;28;20603;-91
2023/05/16 05:49:34;;;;;;;21.60;19.70;;;12.50;1.00;;;;;;5004160;28;20431;-79
2023/05/16 05:54:45;;;;;;;23.13;19.97;;;12.50;1.00;;;;;;4986502;28;20478;-77
2023/05/16 05:57:11;;;;;;;22.90;20.67;;;12.60;1.00;;;;;;4997900;28;20463;-76
2023/05/16 05:59:39;;;;;;;18.73;16.80;;;12.60;1.00;;;;;;4991745;28;20499;-78
2023/05/16 06:02:06;;;;;;;20.63;18.53;;;12.60;1.00;;;;;;4996836;28;20526;-78
2023/05/16 06:04:34;;;;;;;20.57;18.43;;;12.50;1.00;;;;;;5003813;28;20483;-79
2023/05/16 06:07:00;;;;;;;19.93;17.90;;;12.50;1.00;;;;;;4986004;28;20463;-80
2023/05/16 06:09:28;;;;;;;19.37;17.47;;;12.50;1.00;;;;;;4981034;28;20472;-80
2023/05/16 06:11:57;;;;;;;19.33;17.30;;;12.60;1.00;;;;;;4976986;28;20460;-78
2023/05/16 06:14:25;;;;;;;19.50;16.53;;;12.60;1.00;;;;;;4979973;28;20471;-81
2023/05/16 06:16:52;;;;;;;16.90;15.33;;;12.60;1.00;;;;;;4977070;28;20919;-80
2023/05/16 06:19:20;;;;;;;15.43;13.83;;;12.60;1.00;;;;;;4982832;28;20467;-81
2023/05/16 06:21:47;;;;;;;16.27;14.63;;;12.60;1.00;;;;;;4984088;28;21008;-79
2023/05/16 06:24:15;;;;;;;14.90;12.80;;;12.60;1.00;;;;;;4977274;28;20487;-79
2023/05/16 06:26:44;;;;;;;15.13;13.30;;;12.60;1.00;;;;;;4976076;28;21194;-79
2023/05/16 06:29:13;;;;;;;13.90;12.30;;;12.60;1.00;;;;;;4974427;28;20469;-80
2023/05/16 06:31:41;;;;;;;14.57;13.07;;;12.70;1.00;;;;;;4977667;28;20901;-79
2023/05/16 06:34:08;;;;;;;13.67;12.27;;;12.60;1.00;;;;;;4976705;28;20479;-79
2023/05/16 06:36:36;;;;;;;14.27;12.90;;;12.60;1.00;;;;;;4983861;28;20495;-80
2023/05/16 06:39:06;;;;;;;15.07;13.77;;;12.60;1.00;;;;;;4986672;28;20464;-80
2023/05/16 06:41:36;;;;;;;16.53;14.77;;;12.60;1.00;;;;;;4979856;28;20471;-78
2023/05/16 06:44:03;;;;;;;15.10;13.57;;;12.70;1.00;;;;;;4979623;28;20481;-79
2023/05/16 06:46:33;;;;;;;14.33;12.63;;;12.70;1.00;;;;;;4988345;28;20506;-80
2023/05/16 06:49:00;;;;;;;15.43;13.83;;;12.80;1.00;;;;;;4979312;28;20459;-79
2023/05/16 06:51:30;;;;;;;13.50;12.07;;;12.90;1.00;;;;;;4983972;28;20456;-78
2023/05/16 06:53:57;;;;;;;13.53;12.23;;;13.00;1.00;;;;;;4976782;28;20492;-77
2023/05/16 06:56:24;;;;;;;13.57;12.23;;;13.00;1.00;;;;;;4976990;28;20511;-78
2023/05/16 06:58:56;;;;;;;12.60;11.40;;;13.00;1.00;;;;;;4980839;28;20469;-78
2023/05/16 07:01:26;;;;;;;12.03;10.80;;;13.00;1.00;;;;;;4980341;28;20536;-85
2023/05/16 07:03:55;;;;;;;11.90;10.70;;;13.10;1.00;;;;;;4982790;28;20473;-77
2023/05/16 07:06:26;;;;;;;12.50;9.27;;;13.00;1.00;;;;;;4978092;28;21240;-78
2023/05/16 07:08:52;;;;;;;15.17;10.13;;;13.00;1.00;;;;;;4981054;28;20537;-78
2023/05/16 07:11:20;;;;;;;11.20;8.90;;;13.00;1.00;;;;;;4975818;28;20445;-77
2023/05/16 07:13:47;;;;;;;10.70;9.57;;;13.00;1.00;;;;;;4984792;28;20605;-76
2023/05/16 07:19:01;;;;;;;10.33;9.33;;;13.10;1.00;;;;;;4978636;28;20459;-78
2023/05/16 07:21:29;;;;;;;15.13;9.43;;;13.10;1.00;;;;;;4977411;28;20449;-76
2023/05/16 07:24:00;;;;;;;9.93;8.93;;;13.20;1.00;;;;;;4986094;28;21396;-77
2023/05/16 07:26:32;;;;;;;9.33;8.40;;;13.30;1.00;;;;;;4981804;28;20567;-78
2023/05/16 07:29:01;;;;;;;10.47;9.47;;;13.30;1.00;;;;;;4976981;28;20595;-76
2023/05/16 07:31:28;;;;;;;10.27;9.03;;;13.20;1.00;;;;;;4936263;28;20911;-77
2023/05/16 07:33:55;;;;;;;9.30;8.00;;;13.40;1.00;;;;;;4984603;28;20476;-77
2023/05/16 07:36:34;;;;;;;8.43;7.53;;;13.40;1.00;;;;;;4981517;28;20992;-76
2023/05/16 07:39:02;;;;;;;11.37;7.50;;;13.50;1.00;;;;;;4979644;28;20464;-77
2023/05/16 07:41:31;;;;;;;8.80;7.33;;;13.60;1.00;;;;;;4967680;28;20472;-77
2023/05/16 07:43:59;;;;;;;8.00;7.20;;;13.70;1.00;;;;;;4978514;28;20511;-76
2023/05/16 07:46:37;;;;;;;7.70;6.90;;;13.80;1.00;;;;;;4982087;28;20956;-78
2023/05/16 07:49:06;;;;;;;10.70;7.70;;;14.00;1.00;;;;;;4980558;28;20477;-76
2023/05/16 07:51:38;;;;;;;7.60;7.00;;;14.00;1.00;;;;;;4979005;28;20544;-76
2023/05/16 07:54:06;;;;;;;8.00;7.13;;;14.10;1.00;;;;;;4984437;28;20620;-77
2023/05/16 07:56:34;;;;;;;6.53;5.93;;;14.30;1.00;;;;;;4986013;28;20675;-78
2023/05/16 07:59:01;;;;;;;8.37;5.80;;;14.40;1.00;;;;;;4981890;28;20474;-77
2023/05/16 08:01:30;;;;;;;7.50;6.30;;;14.40;1.00;;;;;;4986665;28;20513;-78
2023/05/16 08:03:57;;;;;;;6.43;5.63;;;14.30;1.00;;;;;;4982247;28;20495;-76
2023/05/16 08:06:25;;;;;;;7.70;6.47;;;14.10;1.00;;;;;;4984662;28;20460;-76
2023/05/16 08:08:54;;;;;;;5.23;4.80;;;14.00;1.00;;;;;;4995154;28;20472;-76
2023/05/16 08:11:24;;;;;;;6.37;5.70;;;13.90;1.00;;;;;;5001291;28;20455;-77
2023/05/16 08:13:51;;;;;;;6.57;5.97;;;13.80;1.00;;;;;;4999862;28;20480;-76
2023/05/16 08:16:18;;;;;;;6.07;5.20;;;13.80;1.00;;;;;;4999346;28;20520;-77
2023/05/16 08:18:51;;;;;;;4.87;4.37;;;13.80;1.00;;;;;;4989339;28;20598;-76
2023/05/16 08:21:21;;;;;;;6.00;5.23;;;13.70;1.00;;;;;;4999275;28;20505;-76
2023/05/16 08:23:48;;;;;;;6.33;5.13;;;13.60;1.00;;;;;;5014003;28;20461;-76
2023/05/16 08:26:17;;;;;;;6.73;6.13;;;13.60;1.00;;;;;;5009792;28;20542;-77
2023/05/16 08:28:45;;;;;;;6.60;5.30;;;13.60;1.00;;;;;;5001525;28;20581;-76
2023/05/16 08:31:12;;;;;;;11.53;6.43;;;13.60;1.00;;;;;;5006198;28;20583;-77
2023/05/16 08:33:39;;;;;;;5.87;5.30;;;13.60;1.00;;;;;;5005270;28;21082;-76
2023/05/16 08:36:07;;;;;;;10.53;5.53;;;13.60;1.00;;;;;;5011183;28;20519;-77
2023/05/16 08:38:34;;;;;;;6.83;5.70;;;13.40;1.00;;;;;;5003051;28;20497;-76
2023/05/16 08:41:03;;;;;;;6.00;4.20;;;13.30;1.00;;;;;;4984098;28;21310;-77
2023/05/16 08:43:33;;;;;;;5.27;4.77;;;13.30;1.00;;;;;;5005054;28;21311;-77
2023/05/16 08:46:01;;;;;;;7.00;5.23;;;13.40;1.00;;;;;;4999167;28;20571;-77
2023/05/16 08:48:32;;;;;;;4.93;4.43;;;13.60;1.00;;;;;;5010386;28;20461;-77
2023/05/16 08:51:02;;;;;;;7.27;6.07;;;13.80;1.00;;;;;;5004686;28;20570;-77
2023/05/16 08:53:37;;;;;;;4.90;4.03;;;13.80;1.00;;;;;;4998634;28;20472;-77
2023/05/16 08:56:08;;;;;;;7.60;4.40;;;14.00;1.00;;;;;;4994410;28;20977;-75
2023/05/16 08:58:37;;;;;;;7.47;5.97;;;14.00;1.00;;;;;;5000317;28;20550;-79
2023/05/16 09:01:07;;;;;;;4.10;3.37;;;14.00;1.00;;;;;;5005938;28;20524;-77
2023/05/16 09:03:37;;;;;;;4.57;4.10;;;14.10;1.00;;;;;;5004898;28;20473;-74
2023/05/16 09:06:05;;;;;;;6.83;3.63;;;14.00;1.00;;;;;;5002960;28;20462;-76
2023/05/16 09:08:34;;;;;;;3.63;2.73;;;14.10;1.00;;;;;;4980228;28;20477;-76
2023/05/16 09:11:05;;;;;;;4.93;3.40;;;14.10;1.00;;;;;;4999969;28;21131;-76
2023/05/16 09:13:35;;;;;;;5.53;3.87;;;14.00;1.00;;;;;;5003095;28;20563;-76
2023/05/16 09:16:11;;;;;;;6.20;3.50;;;14.10;1.00;;;;;;5008928;28;20479;-76
2023/05/16 09:18:39;;;;;;;4.00;2.97;;;14.30;1.00;;;;;;5002287;28;20495;-75
2023/05/16 09:21:10;;;;;;;4.60;3.10;;;14.40;1.00;;;;;;4991126;28;20474;-74
2023/05/16 09:23:46;;;;;;;6.90;3.53;;;14.50;1.00;;;;;;5006453;28;20477;-74
2023/05/16 09:26:13;;;;;;;5.23;3.17;;;14.40;1.00;;;;;;4984375;28;20492;-75
2023/05/16 09:28:40;;;;;;;4.47;2.87;;;14.40;1.00;;;;;;4981022;28;20880;-74
2023/05/16 09:31:25;;;;;;;8.17;3.50;;;14.50;1.00;;;;;;4998343;28;21298;-74
2023/05/16 09:33:52;;;;;;;5.50;3.23;;;14.50;1.00;;;;;;4993337;28;20500;-73
2023/05/16 09:36:21;;;;;;;5.90;3.20;;;14.60;1.00;;;;;;4996381;28;20506;-75
2023/05/16 09:38:48;;;;;;;5.10;3.20;;;14.70;1.00;;;;;;4997857;28;20489;-76
2023/05/16 09:41:15;;;;;;;3.50;2.90;;;14.60;1.00;;;;;;4994934;28;20908;-76
2023/05/16 09:43:43;;;;;;;2.90;2.60;;;14.40;1.00;;;;;;4996134;28;20956;-77
2023/05/16 09:46:14;;;;;;;4.20;2.80;;;14.30;1.00;;;;;;5004040;28;20483;-76
2023/05/16 09:48:48;;;;;;;3.33;2.67;;;14.30;1.00;;;;;;4999436;28;20531;-77
2023/05/16 09:51:15;;;;;;;4.07;2.93;;;14.20;1.00;;;;;;4997932;28;20477;-76
2023/05/16 09:53:44;;;;;;;8.13;3.40;;;14.10;1.00;;;;;;4999360;28;21209;-75
2023/05/16 09:56:12;;;;;;;4.20;2.80;;;14.20;1.00;;;;;;4999904;28;20535;-77
2023/05/16 09:58:41;;;;;;;4.57;2.30;;;14.40;1.00;;;;;;4984069;28;20490;-76
2023/05/16 10:01:14;;;;;;;3.87;2.87;;;14.60;1.00;;;;;;4985858;28;20551;-77
2023/05/16 10:03:43;;;;;;;4.27;2.30;;;14.70;1.00;;;;;;4996997;28;20495;-76
2023/05/16 10:06:12;;;;;;;2.90;2.53;;;14.70;1.00;;;;;;4999006;28;20469;-77
2023/05/16 10:08:43;;;;;;;4.50;2.60;;;14.60;1.00;;;;;;4986814;28;20818;-76
2023/05/16 10:11:11;;;;;;;2.90;2.40;;;14.60;1.00;;;;;;4995888;28;20470;-76
2023/05/16 10:13:41;;;;;;;4.50;2.50;;;14.40;1.00;;;;;;4997205;28;21271;-76
2023/05/16 10:16:12;;;;;;;5.33;3.10;;;14.30;1.00;;;;;;4996016;28;20478;-76
2023/05/16 10:18:42;;;;;;;5.57;2.90;;;14.30;1.00;;;;;;4998661;28;20539;-76
2023/05/16 10:21:16;;;;;;;5.40;4.03;;;14.40;1.00;;;;;;5001608;28;20463;-76
2023/05/16 10:23:44;;;;;;;4.37;3.03;;;14.40;1.00;;;;;;4999052;28;20825;-76
2023/05/16 10:26:13;;;;;;;4.97;3.30;;;14.40;1.00;;;;;;5001756;28;20462;-76
2023/05/16 10:28:41;;;;;;;3.63;2.87;;;14.40;1.00;;;;;;5000638;28;20511;-76
2023/05/16 10:31:11;;;;;;;5.53;3.00;;;14.50;1.00;;;;;;4998330;28;20551;-75
2023/05/16 10:33:42;;;;;;;4.67;3.37;;;14.50;1.00;;;;;;4995559;28;20966;-78
2023/05/16 10:36:14;;;;;;;4.67;3.73;;;14.60;1.00;;;;;;4994168;28;20508;-75
2023/05/16 10:38:46;;;;;;;3.47;3.07;;;14.60;1.00;;;;;;4981294;28;20466;-75
2023/05/16 10:41:16;;;;;;;7.70;3.77;;;14.60;1.00;;;;;;5000325;28;20474;-75
2023/05/16 10:43:47;;;;;;;7.57;4.13;;;14.50;1.00;;;;;;4995171;28;20572;-74
2023/05/16 10:46:15;;;;;;;6.67;5.90;;;14.50;1.00;;;;;;4997047;28;21079;-73
2023/05/16 10:48:46;;;;;;;4.20;3.50;;;14.80;1.00;;;;;;4997936;28;20481;-74
2023/05/16 10:51:49;;;;;;;6.90;3.90;;;15.40;1.00;;;;;;4995313;28;20464;-75
2023/05/16 10:54:21;;;;;;;6.17;3.57;;;15.50;1.00;;;;;;4977881;28;20480;-74
2023/05/16 10:56:56;;;;;;;5.03;4.20;;;15.30;1.00;;;;;;5003004;28;20467;-75
2023/05/16 10:59:26;;;;;;;5.10;4.30;;;15.00;1.00;;;;;;4978117;28;20623;-76
2023/05/16 11:01:56;;;;;;;4.67;3.17;;;15.00;1.00;;;;;;4985898;28;20996;-76
2023/05/16 11:04:24;;;;;;;5.57;3.97;;;14.70;1.00;;;;;;4997357;28;20462;-76
2023/05/16 11:06:55;;;;;;;7.20;3.13;;;14.70;1.00;;;;;;5003306;28;20929;-77
2023/05/16 11:09:27;;;;;;;8.60;3.80;;;14.50;1.00;;;;;;4983112;28;20912;-76
2023/05/16 11:12:00;;;;;;;7.63;4.40;;;14.30;1.00;;;;;;5000088;28;20469;-77
2023/05/16 11:14:28;;;;;;;6.00;3.50;;;14.10;1.00;;;;;;4978570;28;20468;-78
2023/05/16 11:17:04;;;;;;;7.57;4.37;;;13.80;1.00;;;;;;4996318;28;20538;-76
2023/05/16 11:19:35;;;;;;;9.17;4.07;;;13.60;1.00;;;;;;4977760;28;20983;-77
2023/05/16 11:22:26;;;;;;;5.47;3.60;;;13.70;1.00;;;;;;4997395;28;21259;-77
2023/05/16 11:24:59;;;;;;;6.80;4.00;;;14.00;1.00;;;;;;5003482;28;21272;-78
2023/05/16 11:27:28;;;;;;;9.63;3.67;;;14.40;1.00;;;;;;5000018;28;20547;-75
2023/05/16 11:30:00;;;;;;;7.07;3.10;;;14.60;1.00;;;;;;4997014;28;20484;-76
2023/05/16 11:32:32;;;;;;;9.30;2.93;;;14.80;1.00;;;;;;4983561;28;20518;-76
2023/05/16 11:35:00;;;;;;;5.47;3.50;;;15.00;1.00;;;;;;4988273;28;20553;-76
2023/05/16 11:37:29;;;;;;;8.63;4.10;;;15.20;1.00;;;;;;4999524;28;20910;-75
2023/05/16 11:40:00;;;;;;;9.83;3.47;;;15.20;1.00;;;;;;4998109;28;21048;-76
2023/05/16 11:42:34;;;;;;;5.17;3.10;;;15.10;1.00;;;;;;4993825;28;20474;-77
2023/05/16 11:45:11;;;;;;;5.77;3.40;;;15.10;1.00;;;;;;5000078;28;20445;-77
2023/05/16 11:47:40;;;;;;;6.53;2.90;;;15.00;1.00;;;;;;4995117;28;20469;-77
2023/05/16 11:50:12;;;;;;;6.60;3.27;;;14.80;1.00;;;;;;4995090;28;20469;-77
2023/05/16 11:52:44;;;;;;;5.40;2.67;;;14.60;1.00;;;;;;4987175;28;20465;-77
2023/05/16 11:55:13;;;;;;;7.10;3.50;;;14.60;1.00;;;;;;4993652;28;20485;-76
2023/05/16 11:57:41;;;;;;;9.97;3.70;;;14.90;1.00;;;;;;4997099;28;20571;-77
2023/05/16 12:00:16;;;;;;;9.57;3.80;;;15.20;1.00;;;;;;4994537;28;21335;-77
2023/05/16 12:02:46;;;;;;;5.87;3.27;;;15.70;1.00;;;;;;4999334;28;20469;-77
2023/05/16 12:05:19;;;;;;;6.53;3.13;;;16.50;1.00;;;;;;4983487;28;20515;-75
2023/05/16 12:07:48;;;;;;;4.07;2.17;;;17.10;1.00;;;;;;5002838;28;20482;-75
2023/05/16 12:10:17;;;;;;;7.97;3.80;;;17.50;1.00;;;;;;4996546;28;22454;-75
2023/05/16 12:12:48;;;;;;;6.20;2.90;;;17.40;1.00;;;;;;4998384;28;20486;-75
2023/05/16 12:15:19;;;;;;;4.57;2.30;;;17.20;1.00;;;;;;4998310;28;20678;-75
2023/05/16 12:17:48;;;;;;;7.90;3.80;;;16.90;1.00;;;;;;4996092;28;20554;-76
2023/05/16 12:20:16;;;;;;;5.30;3.63;;;16.70;1.00;;;;;;4980305;28;20481;-76
2023/05/16 12:22:47;;;;;;;4.00;2.73;;;16.60;1.00;;;;;;4996088;28;20503;-78
2023/05/16 12:25:28;;;;;;;5.70;3.00;;;16.50;1.00;;;;;;4996265;28;21775;-76
2023/05/16 12:27:56;;;;;;;6.20;3.60;;;16.20;1.00;;;;;;5001450;28;22389;-77
2023/05/16 12:30:25;;;;;;;5.83;2.70;;;16.10;1.00;;;;;;4991985;28;20482;-77
2023/05/16 12:32:59;;;;;;;12.27;3.30;;;16.10;1.00;;;;;;5001218;28;20551;-76
2023/05/16 12:35:30;;;;;;;7.83;3.57;;;16.20;1.00;;;;;;5004480;28;20996;-75
2023/05/16 12:38:00;;;;;;;7.77;3.10;;;16.30;1.00;;;;;;5004147;28;20462;-79
2023/05/16 12:40:32;;;;;;;9.13;3.87;;;16.50;1.00;;;;;;5000282;28;20957;-75
2023/05/16 12:43:03;;;;;;;6.40;3.20;;;16.50;1.00;;;;;;4981800;28;20531;-76
2023/05/16 12:45:33;;;;;;;5.87;2.40;;;16.60;1.00;;;;;;4993235;28;20608;-77
2023/05/16 12:48:05;;;;;;;5.57;2.93;;;16.60;1.00;;;;;;4982663;28;20470;-79
2023/05/16 12:50:35;;;;;;;6.50;3.20;;;16.70;1.00;;;;;;4995980;28;20472;-75
2023/05/16 12:53:04;;;;;;;6.83;3.17;;;17.00;1.00;;;;;;5000774;28;20483;-77
2023/05/16 12:55:34;;;;;;;6.57;3.07;;;17.40;1.00;;;;;;4997997;28;20487;-77
2023/05/16 12:58:04;;;;;;;7.43;2.70;;;17.70;1.00;;;;;;5007522;28;22867;-78
2023/05/16 13:00:35;;;;;;;4.10;2.20;;;18.40;1.00;;;;;;5006675;28;21067;-78
2023/05/16 13:03:02;;;;;;;4.50;2.50;;;19.80;1.00;;;;;;4985099;28;20460;-79